VTSS/HDY METAR and TAF weather

Enter ICAO airport designator
Station Type Date Time Source
VTSS METAR 2020/10/20 17:00 UTC NOAA

VTSS 201700Z 00000KT 9999 FEW020 BKN100 26/26 Q1010 NOSIG


Station Type Date Time Source
VTSS Decoded METAR 2020/10/20 17:00 UTC NOAA

Hat Yai, Thailand (VTSS) 06-55N 100-26E 35M
Oct 20, 2020 - 01:00 PM EDT / 2020.10.20 1700 UTC
Wind: Calm:0
Visibility: greater than 7 mile(s):0
Sky conditions: mostly cloudy
Temperature: 78 F (26 C)
Dew Point: 78 F (26 C)
Relative Humidity: 100%
Pressure (altimeter): 29.83 in. Hg (1010 hPa)
ob: VTSS 201700Z 00000KT 9999 FEW020 BKN100 26/26 Q1010 NOSIG
cycle: 17

Station Type Date Time Source
VTSS TAF 2020/10/20 12:36 UTC NOAA

TAF VTSS 201100Z 2012/2112 05003KT 9999 FEW020 SCT100
TEMPO 2106/2112 VRB10G20KT 3000 TSRA FEW016CB SCT018 BKN100

Example: see airport list